Time;durP1;ratioP1;P1;durP2;ratioP2;P2;SDS_P1;SDS_P2;PMS_P1;PMS_P2;Temp;Humidity;BMP_temperature;BMP_pressure;BME280_temperature;BME280_humidity;BME280_pressure;Samples;Min_cycle;Max_cycle;Signal;HPM_P1;HPM_P2
2023/03/19 00:00:46;;;;;;;13.32;6.22;;;;;;;-144.57;100.00;62443.72;4750674;30;20059;-61
2023/03/19 00:03:11;;;;;;;10.70;5.80;;;;;;;-144.57;100.00;62443.72;4748567;30;20150;-63
2023/03/19 00:05:37;;;;;;;10.77;5.40;;;;;;;-144.57;100.00;62443.72;4734622;30;20546;-61
2023/03/19 00:08:03;;;;;;;10.80;5.80;;;;;;;-144.57;100.00;62443.72;4750483;30;20056;-60
2023/03/19 00:10:28;;;;;;;10.80;5.22;;;;;;;-144.57;100.00;62443.72;4750389;30;20068;-63
2023/03/19 00:12:54;;;;;;;14.82;5.18;;;;;;;-144.57;100.00;62443.72;4749518;30;20060;-62
2023/03/19 00:15:20;;;;;;;11.13;4.78;;;;;;;-144.57;100.00;62443.72;4762559;30;20416;-61
2023/03/19 00:17:45;;;;;;;7.80;4.70;;;;;;;-144.57;100.00;62443.72;4749141;30;20064;-61
2023/03/19 00:20:13;;;;;;;8.15;4.30;;;;;;;-144.57;100.00;62443.72;4750653;30;20075;-61
2023/03/19 00:22:40;;;;;;;12.23;4.18;;;;;;;-144.57;100.00;62443.72;4764011;30;20515;-61
2023/03/19 00:25:07;;;;;;;9.77;4.15;;;;;;;-144.57;100.00;62443.72;4749268;30;20067;-62
2023/03/19 00:27:33;;;;;;;6.10;3.65;;;;;;;-144.57;100.00;62443.72;4750357;30;20139;-62
2023/03/19 00:30:01;;;;;;;6.80;3.72;;;;;;;-144.57;100.00;62443.72;4750636;30;20151;-60
2023/03/19 00:32:27;;;;;;;5.80;3.35;;;;;;;-144.57;100.00;62443.72;4749283;30;20067;-61
2023/03/19 00:34:52;;;;;;;5.57;3.25;;;;;;;-144.57;100.00;62443.72;4764030;30;20056;-61
2023/03/19 00:37:20;;;;;;;7.97;3.50;;;;;;;-144.57;100.00;62443.72;4750392;30;20594;-61
2023/03/19 00:39:47;;;;;;;8.02;3.40;;;;;;;-144.57;100.00;62443.72;4764045;30;20501;-62
2023/03/19 00:42:15;;;;;;;6.03;3.47;;;;;;;-144.57;100.00;62443.72;4750405;30;20116;-61
2023/03/19 00:44:41;;;;;;;5.65;3.45;;;;;;;-144.57;100.00;62443.72;4749213;30;20129;-62
2023/03/19 00:47:07;;;;;;;18.45;4.38;;;;;;;-144.57;100.00;62443.72;4764165;30;20056;-62
2023/03/19 00:49:34;;;;;;;7.20;3.65;;;;;;;-144.57;100.00;62443.72;4747453;30;20067;-62
2023/03/19 00:52:01;;;;;;;6.68;3.65;;;;;;;-144.57;100.00;62443.72;4750623;30;20059;-62
2023/03/19 00:54:27;;;;;;;6.30;3.70;;;;;;;-144.57;100.00;62443.72;4748890;30;20061;-61
2023/03/19 00:56:53;;;;;;;7.95;3.90;;;;;;;-144.57;100.00;62443.72;4749049;30;20056;-62
2023/03/19 00:59:20;;;;;;;9.15;3.63;;;;;;;-144.57;100.00;62443.72;4767077;30;20060;-60
2023/03/19 01:01:46;;;;;;;7.25;4.15;;;;;;;-144.57;100.00;62443.72;4752615;30;20125;-61
2023/03/19 01:04:14;;;;;;;7.95;4.03;;;;;;;-144.57;100.00;62443.72;4767055;30;20118;-62
2023/03/19 01:06:39;;;;;;;12.57;4.15;;;;;;;-144.57;100.00;62443.72;4767203;30;20060;-62
2023/03/19 01:09:05;;;;;;;6.97;3.70;;;;;;;-144.57;100.00;62443.72;4753426;30;20060;-62
2023/03/19 01:11:31;;;;;;;8.43;5.03;;;;;;;-144.57;100.00;62443.72;4766984;30;20108;-59
2023/03/19 01:13:57;;;;;;;9.02;4.72;;;;;;;-144.57;100.00;62443.72;4752137;30;20147;-62
2023/03/19 01:16:24;;;;;;;10.93;5.15;;;;;;;-144.57;100.00;62443.72;4753282;30;20151;-61
2023/03/19 01:18:51;;;;;;;12.75;5.38;;;;;;;-144.57;100.00;62443.72;4766732;30;20064;-61
2023/03/19 01:21:17;;;;;;;16.45;6.82;;;;;;;-144.57;100.00;62443.72;4753190;30;20063;-61
2023/03/19 01:23:47;;;;;;;13.70;6.22;;;;;;;-144.57;100.00;62443.72;4752260;30;20416;-61
2023/03/19 01:26:13;;;;;;;13.85;7.30;;;;;;;-144.57;100.00;62443.72;4766751;30;20060;-62
2023/03/19 01:28:43;;;;;;;10.43;4.93;;;;;;;-144.57;100.00;62443.72;4752383;30;20430;-61
2023/03/19 01:31:10;;;;;;;16.52;5.75;;;;;;;-144.57;100.00;62443.72;4751873;30;20118;-62
2023/03/19 01:34:05;;;;;;;14.25;5.15;;;;;;;-144.57;100.00;62443.72;4719931;30;20112;-61
2023/03/19 01:36:36;;;;;;;13.18;5.13;;;;;;;-144.57;100.00;62443.72;4766703;30;20139;-62
2023/03/19 01:39:04;;;;;;;10.77;5.20;;;;;;;-144.57;100.00;62443.72;4765671;30;20060;-63
2023/03/19 01:41:30;;;;;;;10.48;4.65;;;;;;;-144.57;100.00;62443.72;4751815;30;20534;-61
2023/03/19 01:44:25;;;;;;;14.82;5.07;;;;;;;-144.57;100.00;62443.72;4766428;30;20067;-61
2023/03/19 01:47:22;;;;;;;7.28;4.80;;;;;;;-144.57;100.00;62443.72;4766696;30;20072;-62
2023/03/19 01:50:32;;;;;;;8.65;4.30;;;;;;;-144.57;100.00;62443.72;4723012;30;20065;-61
2023/03/19 01:53:22;;;;;;;7.05;3.78;;;;;;;-144.57;100.00;62443.72;4729791;30;20071;-60
2023/03/19 01:56:03;;;;;;;6.50;3.90;;;;;;;-144.57;100.00;62443.72;4756875;30;20115;-61
2023/03/19 01:58:56;;;;;;;10.27;3.92;;;;;;;-144.57;100.00;62443.72;4751725;30;20199;-63
2023/03/19 02:02:12;;;;;;;7.07;3.75;;;;;;;-144.57;100.00;62443.72;4734917;30;20151;-62
2023/03/19 02:04:40;;;;;;;5.93;3.75;;;;;;;-144.57;100.00;62443.72;4765988;30;20155;-63
2023/03/19 02:07:07;;;;;;;6.22;3.80;;;;;;;-144.57;100.00;62443.72;4751397;30;20507;-62
2023/03/19 02:09:33;;;;;;;9.32;4.00;;;;;;;-144.57;100.00;62443.72;4765327;30;20151;-62
2023/03/19 02:12:00;;;;;;;8.65;4.57;;;;;;;-144.57;100.00;62443.72;4765601;30;20143;-62
2023/03/19 02:14:26;;;;;;;9.60;4.72;;;;;;;-144.57;100.00;62443.72;4765888;30;20074;-61
2023/03/19 02:16:53;;;;;;;7.38;4.43;;;;;;;-144.57;100.00;62443.72;4766021;30;20072;-62
2023/03/19 02:19:34;;;;;;;7.25;4.38;;;;;;;-144.57;100.00;62443.72;4765548;30;20494;-61
2023/03/19 02:22:01;;;;;;;7.97;4.30;;;;;;;-144.57;100.00;62443.72;4765803;30;20106;-61
2023/03/19 02:24:38;;;;;;;5.13;3.60;;;;;;;-144.57;100.00;62443.72;4750902;30;20060;-62
2023/03/19 02:27:09;;;;;;;8.93;4.60;;;;;;;-144.57;100.00;62443.72;4766109;30;20071;-61
2023/03/19 02:29:39;;;;;;;9.65;4.32;;;;;;;-144.57;100.00;62443.72;4752362;30;20064;-62
2023/03/19 02:32:05;;;;;;;9.90;3.42;;;;;;;-144.57;100.00;62443.72;4750949;30;20055;-62
2023/03/19 02:34:34;;;;;;;6.00;3.75;;;;;;;-144.57;100.00;62443.72;4749602;30;20056;-63
2023/03/19 02:37:03;;;;;;;9.70;4.47;;;;;;;-144.57;100.00;62443.72;4751860;30;20060;-62
2023/03/19 02:39:38;;;;;;;8.32;4.53;;;;;;;-144.57;100.00;62443.72;4735906;30;20064;-62
2023/03/19 02:42:04;;;;;;;9.60;4.50;;;;;;;-144.57;100.00;62443.72;4735742;30;20527;-62
2023/03/19 02:44:30;;;;;;;6.57;4.20;;;;;;;-144.57;100.00;62443.72;4750492;30;20610;-62
2023/03/19 02:46:56;;;;;;;11.05;5.05;;;;;;;-144.57;100.00;62443.72;4751401;30;20080;-61
2023/03/19 02:49:22;;;;;;;9.93;5.03;;;;;;;-144.57;100.00;62443.72;4764799;30;20147;-63
2023/03/19 02:51:48;;;;;;;10.98;5.60;;;;;;;-144.57;100.00;62443.72;4739503;30;20152;-62
2023/03/19 02:54:14;;;;;;;10.82;5.40;;;;;;;-144.57;100.00;62443.72;4733960;30;20533;-62
2023/03/19 02:56:39;;;;;;;14.95;6.60;;;;;;;-144.57;100.00;62443.72;4732986;30;20065;-63
2023/03/19 02:59:05;;;;;;;10.10;5.05;;;;;;;-144.57;100.00;62443.72;4747493;30;20547;-62
2023/03/19 03:01:31;;;;;;;7.57;4.90;;;;;;;-144.57;100.00;62443.72;4747686;30;20052;-61
2023/03/19 03:03:56;;;;;;;10.85;5.20;;;;;;;-144.57;100.00;62443.72;4747429;30;20073;-62
2023/03/19 03:06:22;;;;;;;13.95;5.43;;;;;;;-144.57;100.00;62443.72;4734119;30;20060;-63
2023/03/19 03:08:48;;;;;;;8.52;5.13;;;;;;;-144.57;100.00;62443.72;4741363;30;20056;-62
2023/03/19 03:11:13;;;;;;;10.57;5.40;;;;;;;-144.57;100.00;62443.72;4747271;30;20056;-61
2023/03/19 03:13:39;;;;;;;12.52;5.55;;;;;;;-144.57;100.00;62443.72;4762011;30;20111;-62
2023/03/19 03:16:06;;;;;;;11.05;5.45;;;;;;;-144.57;100.00;62443.72;4761728;30;20080;-64
2023/03/19 03:18:31;;;;;;;10.98;5.65;;;;;;;-144.57;100.00;62443.72;4733598;30;20061;-62
2023/03/19 03:20:57;;;;;;;9.88;5.78;;;;;;;-144.57;100.00;62443.72;4731542;30;20059;-62
2023/03/19 03:23:23;;;;;;;11.18;5.78;;;;;;;-144.57;100.00;62443.72;4733532;30;20132;-63
2023/03/19 03:25:50;;;;;;;13.52;5.85;;;;;;;-144.57;100.00;62443.72;4747321;30;20151;-61
2023/03/19 03:28:16;;;;;;;12.07;6.53;;;;;;;-144.57;100.00;62443.72;4733600;30;20063;-60
2023/03/19 03:30:42;;;;;;;19.27;7.32;;;;;;;-144.57;100.00;62443.72;4762095;30;20064;-61
2023/03/19 03:33:08;;;;;;;15.88;6.53;;;;;;;-144.57;100.00;62443.72;4733429;30;20160;-61
2023/03/19 03:35:34;;;;;;;16.40;6.28;;;;;;;-144.57;100.00;62443.72;4758591;30;20060;-63
2023/03/19 03:37:59;;;;;;;13.93;7.32;;;;;;;-144.57;100.00;62443.72;4764157;30;20056;-62
2023/03/19 03:40:26;;;;;;;12.63;6.63;;;;;;;-144.57;100.00;62443.72;4750561;30;20060;-64
2023/03/19 03:42:52;;;;;;;14.48;6.57;;;;;;;-144.57;100.00;62443.72;4764663;30;20507;-62
2023/03/19 03:45:18;;;;;;;17.08;6.45;;;;;;;-144.57;100.00;62443.72;4749569;30;20052;-63
2023/03/19 03:47:44;;;;;;;13.73;7.38;;;;;;;-144.57;100.00;62443.72;4749892;30;20114;-62
2023/03/19 03:50:10;;;;;;;17.90;7.32;;;;;;;-144.57;100.00;62443.72;4749330;30;20056;-62
2023/03/19 03:52:38;;;;;;;12.13;6.57;;;;;;;-144.57;100.00;62443.72;4764607;30;20067;-63
2023/03/19 03:55:04;;;;;;;15.90;6.85;;;;;;;-144.57;100.00;62443.72;4750836;30;20143;-60
2023/03/19 03:57:30;;;;;;;13.27;6.60;;;;;;;-144.57;100.00;62443.72;4749784;30;20056;-63
2023/03/19 03:59:55;;;;;;;12.77;6.97;;;;;;;-144.57;100.00;62443.72;4764212;30;20086;-61
2023/03/19 04:02:23;;;;;;;15.40;6.65;;;;;;;-144.57;100.00;62443.72;4764477;30;20117;-61
2023/03/19 04:04:50;;;;;;;13.15;6.35;;;;;;;-144.57;100.00;62443.72;4763862;30;20498;-62
2023/03/19 04:07:16;;;;;;;14.80;5.50;;;;;;;-144.57;100.00;62443.72;4764482;30;20507;-62
2023/03/19 04:09:49;;;;;;;10.43;4.93;;;;;;;-144.57;100.00;62443.72;4750608;30;20056;-62
2023/03/19 04:12:16;;;;;;;13.35;5.50;;;;;;;-144.57;100.00;62443.72;4734951;30;20142;-63
2023/03/19 04:14:41;;;;;;;8.80;5.15;;;;;;;-144.57;100.00;62443.72;4749246;30;20060;-61
2023/03/19 04:17:08;;;;;;;14.40;5.85;;;;;;;-144.57;100.00;62443.72;4749236;30;20083;-63
2023/03/19 04:19:34;;;;;;;9.13;5.50;;;;;;;-144.57;100.00;62443.72;4748706;30;20523;-63
2023/03/19 04:22:02;;;;;;;15.45;5.43;;;;;;;-144.57;100.00;62443.72;4749314;30;20052;-61
2023/03/19 04:24:28;;;;;;;10.75;5.47;;;;;;;-144.57;100.00;62443.72;4748750;30;20087;-62
2023/03/19 04:26:54;;;;;;;11.20;5.53;;;;;;;-144.57;100.00;62443.72;4749561;30;20547;-63
2023/03/19 04:29:21;;;;;;;16.35;5.70;;;;;;;-144.57;100.00;62443.72;4749290;30;20579;-62
2023/03/19 04:31:47;;;;;;;10.07;5.88;;;;;;;-144.57;100.00;62443.72;4734930;30;20122;-62
2023/03/19 04:34:12;;;;;;;10.20;5.35;;;;;;;-144.57;100.00;62443.72;4752758;30;20056;-62
2023/03/19 04:36:38;;;;;;;11.98;5.10;;;;;;;-144.57;100.00;62443.72;4749891;30;20060;-62
2023/03/19 04:39:04;;;;;;;9.02;5.93;;;;;;;-144.57;100.00;62443.72;4748780;30;20060;-62
2023/03/19 04:41:30;;;;;;;9.00;5.43;;;;;;;-144.57;100.00;62443.72;4735208;30;20063;-63
2023/03/19 04:44:09;;;;;;;14.77;7.93;;;;;;;-144.57;100.00;62443.72;4736537;30;20073;-62
2023/03/19 04:46:38;;;;;;;14.38;6.47;;;;;;;-144.57;100.00;62443.72;4749711;30;20103;-62
2023/03/19 04:49:03;;;;;;;13.60;5.80;;;;;;;-144.57;100.00;62443.72;4749646;30;20087;-63
2023/03/19 04:51:29;;;;;;;10.70;5.55;;;;;;;-144.57;100.00;62443.72;4749692;30;20121;-62
2023/03/19 04:53:55;;;;;;;8.75;5.05;;;;;;;-144.57;100.00;62443.72;4734779;30;20069;-63
2023/03/19 04:56:21;;;;;;;12.93;5.75;;;;;;;-144.57;100.00;62443.72;4749575;30;20068;-62
2023/03/19 04:58:47;;;;;;;11.98;5.88;;;;;;;-144.57;100.00;62443.72;4749510;30;20417;-62
2023/03/19 05:01:13;;;;;;;8.82;5.43;;;;;;;-144.57;100.00;62443.72;4749537;30;20053;-62
2023/03/19 05:03:57;;;;;;;10.35;5.88;;;;;;;-144.57;100.00;62443.72;4749351;30;20130;-63
2023/03/19 05:06:23;;;;;;;10.98;6.22;;;;;;;-144.57;100.00;62443.72;4749362;30;20152;-62
2023/03/19 05:08:49;;;;;;;12.40;6.50;;;;;;;-144.57;100.00;62443.72;4749404;30;20072;-62
2023/03/19 05:11:17;;;;;;;12.98;6.45;;;;;;;-144.57;100.00;62443.72;4749343;30;20091;-62
2023/03/19 05:14:18;;;;;;;17.23;7.50;;;;;;;-144.57;100.00;62443.72;4715715;30;20156;-62
2023/03/19 05:17:14;;;;;;;13.35;6.82;;;;;;;-144.57;100.00;62443.72;4730866;30;20075;-63
2023/03/19 05:19:59;;;;;;;11.98;6.78;;;;;;;-144.57;100.00;62443.72;4748487;30;20092;-62
2023/03/19 05:22:26;;;;;;;37.15;18.08;;;;;;;-144.57;100.00;62443.72;4749388;30;20060;-63
2023/03/19 05:24:52;;;;;;;13.52;7.88;;;;;;;-144.57;100.00;62443.72;4748899;30;20064;-63
2023/03/19 05:27:19;;;;;;;15.23;6.80;;;;;;;-144.57;100.00;62443.72;4735885;30;20233;-63
2023/03/19 05:30:08;;;;;;;9.77;6.50;;;;;;;-144.57;100.00;62443.72;4741351;30;20060;-63
2023/03/19 05:32:46;;;;;;;12.45;6.53;;;;;;;-144.57;100.00;62443.72;4735908;30;20064;-62
2023/03/19 05:35:22;;;;;;;11.90;6.35;;;;;;;-144.57;100.00;62443.72;4748668;30;20064;-62
2023/03/19 05:37:48;;;;;;;13.13;6.53;;;;;;;-144.57;100.00;62443.72;4748334;30;20056;-67
2023/03/19 05:40:15;;;;;;;10.38;6.40;;;;;;;-144.57;100.00;62443.72;4748369;30;20076;-63
2023/03/19 05:42:43;;;;;;;15.47;6.67;;;;;;;-144.57;100.00;62443.72;4748690;30;20057;-63
2023/03/19 05:45:11;;;;;;;14.20;6.55;;;;;;;-144.57;100.00;62443.72;4747008;30;20185;-62
2023/03/19 05:47:48;;;;;;;10.65;5.88;;;;;;;-144.57;100.00;62443.72;4748981;30;20131;-61
2023/03/19 05:50:16;;;;;;;;;;;;;;;-144.57;100.00;62443.72;4749158;30;20130;-62
2023/03/19 05:52:54;;;;;;;10.98;6.55;;;;;;;-144.57;100.00;62443.72;4748591;30;20016;-62
2023/03/19 05:55:20;;;;;;;19.08;8.35;;;;;;;-144.57;100.00;62443.72;4754677;30;20096;-62
2023/03/19 05:57:52;;;;;;;16.52;9.20;;;;;;;-144.57;100.00;62443.72;4733777;30;20056;-62
2023/03/19 06:00:22;;;;;;;15.60;8.25;;;;;;;-144.57;100.00;62443.72;4763260;30;20061;-61
2023/03/19 06:02:50;;;;;;;19.13;9.02;;;;;;;-144.57;100.00;62443.72;4763428;30;20060;-62
2023/03/19 06:05:18;;;;;;;14.07;7.30;;;;;;;-144.57;100.00;62443.72;4736455;30;20052;-62
2023/03/19 06:07:44;;;;;;;15.30;7.78;;;;;;;-144.57;100.00;62443.72;4766407;30;20056;-63
2023/03/19 06:10:20;;;;;;;13.75;7.50;;;;;;;-144.57;100.00;62443.72;4766137;30;20531;-62
2023/03/19 06:12:49;;;;;;;11.80;6.78;;;;;;;-144.57;100.00;62443.72;4737232;30;20550;-62
2023/03/19 06:15:37;;;;;;;16.05;7.47;;;;;;;-144.57;100.00;62443.72;4763573;30;20113;-64
2023/03/19 06:18:16;;;;;;;11.50;6.07;;;;;;;-144.57;100.00;62443.72;4766025;30;20348;-62
2023/03/19 06:20:42;;;;;;;11.32;6.10;;;;;;;-144.57;100.00;62443.72;4750991;30;20060;-62
2023/03/19 06:23:08;;;;;;;9.85;5.65;;;;;;;-144.57;100.00;62443.72;4765835;30;20118;-61
2023/03/19 06:25:35;;;;;;;13.65;4.93;;;;;;;-144.57;100.00;62443.72;4764923;30;20056;-62
2023/03/19 06:28:02;;;;;;;11.27;4.63;;;;;;;-144.57;100.00;62443.72;4736478;30;20052;-61
2023/03/19 06:30:34;;;;;;;9.18;4.63;;;;;;;-144.57;100.00;62443.72;4750916;30;20052;-62
2023/03/19 06:33:03;;;;;;;9.70;4.22;;;;;;;-144.57;100.00;62443.72;4765455;30;20254;-62
2023/03/19 06:35:31;;;;;;;8.20;4.28;;;;;;;-144.57;100.00;62443.72;4764863;30;20079;-62
2023/03/19 06:37:57;;;;;;;6.32;3.95;;;;;;;-144.57;100.00;62443.72;4765411;30;20523;-61
2023/03/19 06:40:23;;;;;;;8.90;3.63;;;;;;;-144.57;100.00;62443.72;4751915;30;20064;-64
2023/03/19 06:42:49;;;;;;;5.28;3.60;;;;;;;-144.57;100.00;62443.72;4752423;30;20121;-64
2023/03/19 06:45:17;;;;;;;6.50;3.60;;;;;;;-144.57;100.00;62443.72;4750325;30;20056;-67
2023/03/19 06:47:44;;;;;;;7.35;3.95;;;;;;;-144.57;100.00;62443.72;4752320;30;20056;-63
2023/03/19 06:50:11;;;;;;;7.35;3.92;;;;;;;-144.57;100.00;62443.72;4751144;30;20516;-63
2023/03/19 06:52:37;;;;;;;5.65;3.95;;;;;;;-144.57;100.00;62443.72;4765524;30;20454;-62
2023/03/19 06:55:04;;;;;;;9.73;3.40;;;;;;;-144.57;100.00;62443.72;4751499;30;20064;-62
2023/03/19 06:57:30;;;;;;;6.50;4.00;;;;;;;-144.57;100.00;62443.72;4751633;30;20067;-62
2023/03/19 06:59:56;;;;;;;5.90;3.60;;;;;;;-144.57;100.00;62443.72;4764952;30;20154;-63
2023/03/19 07:02:22;;;;;;;7.55;4.10;;;;;;;-144.57;100.00;62443.72;4765385;30;20055;-62
2023/03/19 07:04:48;;;;;;;6.70;3.65;;;;;;;-144.57;100.00;62443.72;4750395;30;20068;-61
2023/03/19 07:07:13;;;;;;;4.90;3.70;;;;;;;-144.57;100.00;62443.72;4765247;30;20059;-65
2023/03/19 07:09:39;;;;;;;8.20;3.78;;;;;;;-144.57;100.00;62443.72;4750495;30;20071;-62
2023/03/19 07:12:05;;;;;;;6.45;4.13;;;;;;;-144.57;100.00;62443.72;4751496;30;20610;-62
2023/03/19 07:14:33;;;;;;;7.43;4.07;;;;;;;-144.57;100.00;62443.72;4751170;30;20131;-62
2023/03/19 07:16:58;;;;;;;6.85;3.75;;;;;;;-144.57;100.00;62443.72;4751257;30;20480;-63
2023/03/19 07:19:24;;;;;;;7.43;3.90;;;;;;;-144.57;100.00;62443.72;4750543;30;20056;-64
2023/03/19 07:21:50;;;;;;;8.30;4.35;;;;;;;-144.57;100.00;62443.72;4764726;30;20063;-65
2023/03/19 07:24:16;;;;;;;6.65;3.60;;;;;;;-144.57;100.00;62443.72;4751136;30;20067;-64
2023/03/19 07:26:42;;;;;;;7.72;4.07;;;;;;;-144.57;100.00;62443.72;4754072;30;20059;-64
2023/03/19 07:29:09;;;;;;;6.68;3.97;;;;;;;-144.57;100.00;62443.72;4749658;30;20053;-61
2023/03/19 07:31:35;;;;;;;10.25;4.10;;;;;;;-144.57;100.00;62443.72;4732510;30;20135;-63
2023/03/19 07:34:01;;;;;;;6.35;4.00;;;;;;;-144.57;100.00;62443.72;4749013;30;20206;-62
2023/03/19 07:36:27;;;;;;;6.40;4.03;;;;;;;-144.57;100.00;62443.72;4749178;30;20438;-62
2023/03/19 07:38:52;;;;;;;8.45;4.05;;;;;;;-144.57;100.00;62443.72;4751231;30;20093;-62
2023/03/19 07:41:18;;;;;;;7.20;4.22;;;;;;;-144.57;100.00;62443.72;4751150;30;20054;-60
2023/03/19 07:43:44;;;;;;;8.48;4.18;;;;;;;-144.57;100.00;62443.72;4749502;30;20064;-62
2023/03/19 07:46:10;;;;;;;15.40;4.22;;;;;;;-144.57;100.00;62443.72;4750879;30;20052;-62
2023/03/19 07:48:36;;;;;;;5.10;3.90;;;;;;;-144.57;100.00;62443.72;4750845;30;20535;-62
2023/03/19 07:51:01;;;;;;;7.68;4.43;;;;;;;-144.57;100.00;62443.72;4750693;30;20067;-61
2023/03/19 07:53:27;;;;;;;6.95;3.80;;;;;;;-144.57;100.00;62443.72;4764161;30;20060;-62
2023/03/19 07:55:53;;;;;;;8.13;4.45;;;;;;;-144.57;100.00;62443.72;4750522;30;20080;-62
2023/03/19 07:58:19;;;;;;;8.98;4.75;;;;;;;-144.57;100.00;62443.72;4764037;30;20071;-62
2023/03/19 08:00:45;;;;;;;6.40;4.20;;;;;;;-144.57;100.00;62443.72;4750246;30;20098;-62
2023/03/19 08:03:10;;;;;;;9.13;3.92;;;;;;;-144.57;100.00;62443.72;4750989;30;20064;-62
2023/03/19 08:05:36;;;;;;;5.72;4.10;;;;;;;-144.57;100.00;62443.72;4749448;30;20523;-64
2023/03/19 08:08:02;;;;;;;8.93;3.90;;;;;;;-144.57;100.00;62443.72;4750133;30;20064;-63
2023/03/19 08:10:28;;;;;;;9.20;3.95;;;;;;;-144.57;100.00;62443.72;4764396;30;20059;-64
2023/03/19 08:12:53;;;;;;;6.45;3.70;;;;;;;-144.57;100.00;62443.72;4750891;30;20127;-63
2023/03/19 08:15:19;;;;;;;8.70;4.30;;;;;;;-144.57;100.00;62443.72;4750548;30;20147;-65
2023/03/19 08:17:45;;;;;;;7.97;4.20;;;;;;;-144.57;100.00;62443.72;4749205;30;20068;-62
2023/03/19 08:20:15;;;;;;;10.55;4.13;;;;;;;-144.57;100.00;62443.72;4746593;30;20823;-66
2023/03/19 08:22:41;;;;;;;;;;;;;;;-144.57;100.00;62443.72;4748831;30;20056;-65
2023/03/19 08:25:08;;;;;;;6.43;4.20;;;;;;;-144.57;100.00;62443.72;4749326;30;19930;-64
2023/03/19 08:27:36;;;;;;;7.03;4.07;;;;;;;-144.57;100.00;62443.72;4750604;30;20431;-62
2023/03/19 08:30:04;;;;;;;7.57;4.40;;;;;;;-144.57;100.00;62443.72;4750625;30;20064;-66
2023/03/19 08:32:29;;;;;;;6.60;4.57;;;;;;;-144.57;100.00;62443.72;4750756;30;20122;-62
2023/03/19 08:34:55;;;;;;;8.07;4.80;;;;;;;-144.57;100.00;62443.72;4763450;30;20519;-64
2023/03/19 08:37:21;;;;;;;11.90;4.25;;;;;;;-144.57;100.00;62443.72;4745826;30;20094;-63
2023/03/19 08:39:49;;;;;;;6.93;3.88;;;;;;;-144.57;100.00;62443.72;4749062;30;20052;-62
2023/03/19 08:42:15;;;;;;;8.73;4.15;;;;;;;-144.57;100.00;62443.72;4748784;30;20056;-64
2023/03/19 08:44:40;;;;;;;7.30;3.55;;;;;;;-144.57;100.00;62443.72;4749890;30;20049;-64
2023/03/19 08:47:06;;;;;;;12.15;4.22;;;;;;;-144.57;100.00;62443.72;4778649;30;20505;-60
2023/03/19 08:49:32;;;;;;;5.10;3.53;;;;;;;-144.57;100.00;62443.72;4749737;30;20610;-62
2023/03/19 08:51:57;;;;;;;6.25;3.00;;;;;;;-144.57;100.00;62443.72;4749902;30;20118;-63
2023/03/19 08:54:23;;;;;;;5.43;3.53;;;;;;;-144.57;100.00;62443.72;4749971;30;20066;-62
2023/03/19 08:56:49;;;;;;;5.32;3.55;;;;;;;-144.57;100.00;62443.72;4750020;30;20072;-62
2023/03/19 08:59:15;;;;;;;9.18;3.50;;;;;;;-144.57;100.00;62443.72;4749211;30;20140;-62
2023/03/19 09:01:41;;;;;;;5.30;3.33;;;;;;;-144.57;100.00;62443.72;4748080;30;20505;-62
2023/03/19 09:04:07;;;;;;;9.57;3.55;;;;;;;-144.57;100.00;62443.72;4731876;30;20148;-63
2023/03/19 09:06:32;;;;;;;8.90;3.40;;;;;;;-144.57;100.00;62443.72;4744791;30;20083;-61
2023/03/19 09:08:58;;;;;;;5.78;3.78;;;;;;;-144.57;100.00;62443.72;4732044;30;20060;-63
2023/03/19 09:11:25;;;;;;;7.70;3.75;;;;;;;-144.57;100.00;62443.72;4732060;30;20056;-62
2023/03/19 09:13:50;;;;;;;6.35;3.67;;;;;;;-144.57;100.00;62443.72;4732153;30;20079;-64
2023/03/19 09:16:16;;;;;;;6.80;4.00;;;;;;;-144.57;100.00;62443.72;4732126;30;20785;-63
2023/03/19 09:18:42;;;;;;;8.73;4.50;;;;;;;-144.57;100.00;62443.72;4733059;30;20068;-67
2023/03/19 09:21:07;;;;;;;10.70;3.97;;;;;;;-144.57;100.00;62443.72;4761678;30;20057;-66
2023/03/19 09:23:33;;;;;;;8.05;4.07;;;;;;;-144.57;100.00;62443.72;4733998;30;20059;-71
2023/03/19 09:25:59;;;;;;;9.90;4.68;;;;;;;-144.57;100.00;62443.72;4750218;30;20060;-64
2023/03/19 09:28:25;;;;;;;10.48;4.72;;;;;;;-144.57;100.00;62443.72;4746848;30;20052;-62
2023/03/19 09:30:51;;;;;;;7.93;4.80;;;;;;;-144.57;100.00;62443.72;4735144;30;20523;-63
2023/03/19 09:33:18;;;;;;;7.70;4.47;;;;;;;-144.57;100.00;62443.72;4735011;30;20076;-62
2023/03/19 09:35:51;;;;;;;6.78;4.78;;;;;;;-144.57;100.00;62443.72;4734863;30;20439;-64
2023/03/19 09:38:18;;;;;;;6.97;4.93;;;;;;;-144.57;100.00;62443.72;4734988;30;20076;-62
2023/03/19 09:40:46;;;;;;;6.88;4.10;;;;;;;-144.57;100.00;62443.72;4733098;30;20053;-67
2023/03/19 09:43:30;;;;;;;8.77;4.63;;;;;;;-144.57;100.00;62443.72;4748544;30;20064;-64
2023/03/19 09:45:57;;;;;;;10.82;4.43;;;;;;;-144.57;100.00;62443.72;4748086;30;20057;-63
2023/03/19 09:48:41;;;;;;;10.13;4.38;;;;;;;-144.57;100.00;62443.72;4734460;30;20077;-63
2023/03/19 09:51:14;;;;;;;10.50;4.57;;;;;;;-144.57;100.00;62443.72;4734319;30;20064;-63
2023/03/19 09:53:47;;;;;;;9.95;4.97;;;;;;;-144.57;100.00;62443.72;4748429;30;20053;-65
2023/03/19 09:56:15;;;;;;;10.63;4.72;;;;;;;-144.57;100.00;62443.72;4747992;30;20114;-65
2023/03/19 09:58:41;;;;;;;11.40;4.97;;;;;;;-144.57;100.00;62443.72;4733405;30;20060;-67
2023/03/19 10:01:21;;;;;;;8.55;4.70;;;;;;;-144.57;100.00;62443.72;4747538;30;20131;-65
2023/03/19 10:04:16;;;;;;;10.85;5.00;;;;;;;-144.57;100.00;62443.72;4748083;30;20114;-64
2023/03/19 10:06:42;;;;;;;8.57;4.57;;;;;;;-144.57;100.00;62443.72;4734083;30;20057;-63
2023/03/19 10:09:20;;;;;;;8.35;4.22;;;;;;;-144.57;100.00;62443.72;4734417;30;20063;-63
2023/03/19 10:11:58;;;;;;;7.90;4.55;;;;;;;-144.57;100.00;62443.72;4747979;30;20063;-64
2023/03/19 10:14:45;;;;;;;7.68;4.53;;;;;;;-144.57;100.00;62443.72;4739036;30;20052;-72
2023/03/19 10:17:20;;;;;;;6.63;4.53;;;;;;;-144.57;100.00;62443.72;4751021;30;20064;-62
2023/03/19 10:19:59;;;;;;;9.57;4.25;;;;;;;-144.57;100.00;62443.72;4750434;30;20430;-62
2023/03/19 10:22:31;;;;;;;8.60;4.65;;;;;;;-144.57;100.00;62443.72;4752359;30;20106;-62
2023/03/19 10:24:57;;;;;;;7.95;4.45;;;;;;;-144.57;100.00;62443.72;4752255;30;20056;-65
2023/03/19 10:27:26;;;;;;;7.72;4.38;;;;;;;-144.57;100.00;62443.72;4752029;30;20529;-62
2023/03/19 10:29:51;;;;;;;7.65;4.90;;;;;;;-144.57;100.00;62443.72;4764941;30;20439;-63
2023/03/19 10:32:33;;;;;;;10.80;4.28;;;;;;;-144.57;100.00;62443.72;4752110;30;20060;-64
2023/03/19 10:35:00;;;;;;;14.60;5.63;;;;;;;-144.57;100.00;62443.72;4751438;30;20052;-62
2023/03/19 10:37:27;;;;;;;6.82;4.32;;;;;;;-144.57;100.00;62443.72;4764985;30;20094;-64
2023/03/19 10:40:00;;;;;;;6.57;4.60;;;;;;;-144.57;100.00;62443.72;4765237;30;20538;-63
2023/03/19 10:42:37;;;;;;;7.20;4.63;;;;;;;-144.57;100.00;62443.72;4751362;30;20495;-62
2023/03/19 10:45:29;;;;;;;10.32;4.43;;;;;;;-144.57;100.00;62443.72;4751595;30;20152;-64
2023/03/19 10:47:56;;;;;;;7.68;4.05;;;;;;;-144.57;100.00;62443.72;4764052;30;20083;-64
2023/03/19 10:50:28;;;;;;;6.32;4.18;;;;;;;-144.57;100.00;62443.72;4751061;30;20242;-62
2023/03/19 10:53:06;;;;;;;9.18;4.72;;;;;;;-144.57;100.00;62443.72;4750137;30;20180;-64
2023/03/19 10:55:32;;;;;;;8.93;4.15;;;;;;;-144.57;100.00;62443.72;4751286;30;20110;-63
2023/03/19 10:58:16;;;;;;;8.18;4.65;;;;;;;-144.57;100.00;62443.72;4751464;30;20511;-65
2023/03/19 11:00:46;;;;;;;9.35;4.10;;;;;;;-144.57;100.00;62443.72;4750632;30;20526;-65
2023/03/19 11:03:29;;;;;;;10.35;5.00;;;;;;;-144.57;100.00;62443.72;4750059;30;20169;-66
2023/03/19 11:06:13;;;;;;;14.68;5.13;;;;;;;-144.57;100.00;62443.72;4749166;30;20176;-66
2023/03/19 11:08:39;;;;;;;11.00;4.97;;;;;;;-144.57;100.00;62443.72;4748822;30;20110;-65
2023/03/19 11:11:05;;;;;;;7.78;4.60;;;;;;;-144.57;100.00;62443.72;4750718;30;20060;-64
2023/03/19 11:13:33;;;;;;;10.88;4.68;;;;;;;-144.57;100.00;62443.72;4750803;30;20059;-67
2023/03/19 11:15:59;;;;;;;7.95;4.68;;;;;;;-144.57;100.00;62443.72;4750903;30;20652;-64